Terminal Aerodrome Forecast
Issued by NWS Cleveland, OH

Home | Current Version | Previous Version | Text Only | Print | Product List | Glossary On
Versions: 1 2 3 4 5 6 7 8 9 10 11 12 13 14 15 16 17 18 19 20
000
FTUS41 KCLE 272040 AAC
TAFTOL
TAF AMD
KTOL 272040Z 2721/2818 05007KT P6SM SCT035 BKN120
     FM280700 VRB03KT 4SM BR VCSH BKN015
     FM281300 27008KT P6SM BKN025=

USA.gov is the U.S. government's official web portal to all federal, state and local government web resources and services.